Terminal Aerodrome Forecast
Issued by NWS

Home | Current Version | Previous Version | Text Only | Print | Product List | Glossary On
Versions: 1 2 3 4 5 6 7 8 9 10 11 12 13 14 15 16 17 18 19 20 21 22 23 24 25 26 27 28 29
000
FTUS41 KCTP 252332
TAFBFD
TAF
KBFD 252332Z 2600/2624 10007KT P6SM VCSH SCT025 BKN050
     FM260300 08006KT 5SM BR SCT006 OVC015
     FM260800 12007KT 4SM -DZ BR OVC007
     FM261500 16010G20KT P6SM OVC015=

USA.gov is the U.S. government's official web portal to all federal, state and local government web resources and services.